sensor_id;sensor_type;location;lat;lon;timestamp;pressure;altitude;pressure_sealevel;temperature;humidity
22580;BME280;11456;47.030;15.396;2023-05-08T00:01:19;97876.84;;;14.95;100.00
22580;BME280;11456;47.030;15.396;2023-05-08T00:03:45;97878.78;;;14.78;100.00
22580;BME280;11456;47.030;15.396;2023-05-08T00:06:12;97874.22;;;14.71;100.00
22580;BME280;11456;47.030;15.396;2023-05-08T00:08:38;97876.25;;;14.69;100.00
22580;BME280;11456;47.030;15.396;2023-05-08T00:11:05;97878.13;;;14.60;100.00
22580;BME280;11456;47.030;15.396;2023-05-08T00:13:32;97871.84;;;14.68;100.00
22580;BME280;11456;47.030;15.396;2023-05-08T00:15:58;97869.50;;;14.49;100.00
22580;BME280;11456;47.030;15.396;2023-05-08T00:18:25;97873.16;;;14.80;100.00
22580;BME280;11456;47.030;15.396;2023-05-08T00:20:51;97886.91;;;14.78;100.00
22580;BME280;11456;47.030;15.396;2023-05-08T00:23:18;97871.72;;;15.08;100.00
22580;BME280;11456;47.030;15.396;2023-05-08T00:25:47;97876.78;;;15.11;100.00
22580;BME280;11456;47.030;15.396;2023-05-08T00:28:13;97885.28;;;15.16;100.00
22580;BME280;11456;47.030;15.396;2023-05-08T00:30:40;97872.16;;;15.28;99.32
22580;BME280;11456;47.030;15.396;2023-05-08T00:33:08;97874.38;;;15.24;97.37
22580;BME280;11456;47.030;15.396;2023-05-08T00:35:34;97882.75;;;14.99;97.83
22580;BME280;11456;47.030;15.396;2023-05-08T00:38:01;97883.69;;;14.83;96.54
22580;BME280;11456;47.030;15.396;2023-05-08T00:40:28;97876.88;;;14.87;97.72
22580;BME280;11456;47.030;15.396;2023-05-08T00:42:55;97885.94;;;14.55;96.17
22580;BME280;11456;47.030;15.396;2023-05-08T00:45:21;97899.31;;;14.08;99.52
22580;BME280;11456;47.030;15.396;2023-05-08T00:47:48;97894.22;;;14.29;99.32
22580;BME280;11456;47.030;15.396;2023-05-08T00:50:15;97903.41;;;14.44;98.83
22580;BME280;11456;47.030;15.396;2023-05-08T00:52:42;97899.63;;;14.21;97.36
22580;BME280;11456;47.030;15.396;2023-05-08T00:55:08;97905.06;;;14.05;98.96
22580;BME280;11456;47.030;15.396;2023-05-08T00:57:35;97909.13;;;14.33;99.49
22580;BME280;11456;47.030;15.396;2023-05-08T01:00:05;97908.28;;;14.33;98.57
22580;BME280;11456;47.030;15.396;2023-05-08T01:02:35;97907.09;;;14.60;97.54
22580;BME280;11456;47.030;15.396;2023-05-08T01:05:02;97908.94;;;14.35;99.52
22580;BME280;11456;47.030;15.396;2023-05-08T01:07:29;97908.13;;;14.42;100.00
22580;BME280;11456;47.030;15.396;2023-05-08T01:09:55;97916.75;;;14.30;100.00
22580;BME280;11456;47.030;15.396;2023-05-08T01:12:39;97911.16;;;14.31;100.00
22580;BME280;11456;47.030;15.396;2023-05-08T01:15:17;97922.31;;;14.28;100.00
22580;BME280;11456;47.030;15.396;2023-05-08T01:20:14;97918.94;;;14.26;100.00
22580;BME280;11456;47.030;15.396;2023-05-08T01:22:54;97926.72;;;14.21;100.00
22580;BME280;11456;47.030;15.396;2023-05-08T01:33:09;97938.88;;;13.93;100.00
22580;BME280;11456;47.030;15.396;2023-05-08T01:35:44;97936.50;;;13.90;100.00
22580;BME280;11456;47.030;15.396;2023-05-08T01:40:43;97939.19;;;13.74;100.00
22580;BME280;11456;47.030;15.396;2023-05-08T01:45:48;97945.66;;;13.97;100.00
22580;BME280;11456;47.030;15.396;2023-05-08T01:48:18;97942.84;;;13.56;100.00
22580;BME280;11456;47.030;15.396;2023-05-08T01:50:46;97947.03;;;13.43;100.00
22580;BME280;11456;47.030;15.396;2023-05-08T01:53:29;97952.63;;;13.49;100.00
22580;BME280;11456;47.030;15.396;2023-05-08T01:56:00;97955.34;;;12.90;100.00
22580;BME280;11456;47.030;15.396;2023-05-08T01:58:28;97954.81;;;13.12;100.00
22580;BME280;11456;47.030;15.396;2023-05-08T02:00:56;97962.97;;;13.20;100.00
22580;BME280;11456;47.030;15.396;2023-05-08T02:03:24;97954.59;;;13.39;100.00
22580;BME280;11456;47.030;15.396;2023-05-08T02:05:51;97962.47;;;13.16;100.00
22580;BME280;11456;47.030;15.396;2023-05-08T02:08:19;97961.91;;;13.13;100.00
22580;BME280;11456;47.030;15.396;2023-05-08T02:10:47;97960.97;;;13.22;100.00
22580;BME280;11456;47.030;15.396;2023-05-08T02:13:15;97972.09;;;12.67;100.00
22580;BME280;11456;47.030;15.396;2023-05-08T02:15:46;97981.06;;;12.50;100.00
22580;BME280;11456;47.030;15.396;2023-05-08T02:18:13;97973.81;;;12.33;100.00
22580;BME280;11456;47.030;15.396;2023-05-08T02:20:41;97975.97;;;12.47;100.00
22580;BME280;11456;47.030;15.396;2023-05-08T02:23:07;97971.38;;;12.22;100.00
22580;BME280;11456;47.030;15.396;2023-05-08T02:25:34;97976.94;;;12.02;100.00
22580;BME280;11456;47.030;15.396;2023-05-08T02:28:01;97982.94;;;11.96;100.00
22580;BME280;11456;47.030;15.396;2023-05-08T02:30:28;97982.75;;;11.80;100.00
22580;BME280;11456;47.030;15.396;2023-05-08T02:32:55;97984.78;;;12.14;100.00
22580;BME280;11456;47.030;15.396;2023-05-08T02:35:26;97987.25;;;11.89;100.00
22580;BME280;11456;47.030;15.396;2023-05-08T02:37:54;97993.03;;;11.67;100.00
22580;BME280;11456;47.030;15.396;2023-05-08T02:40:21;97990.88;;;11.43;100.00
22580;BME280;11456;47.030;15.396;2023-05-08T02:42:48;97995.91;;;11.29;100.00
22580;BME280;11456;47.030;15.396;2023-05-08T02:45:15;97988.34;;;11.42;100.00
22580;BME280;11456;47.030;15.396;2023-05-08T02:47:46;97991.44;;;11.74;100.00
22580;BME280;11456;47.030;15.396;2023-05-08T02:53:15;97994.38;;;11.53;98.61
22580;BME280;11456;47.030;15.396;2023-05-08T02:55:52;98002.44;;;11.63;98.49
22580;BME280;11456;47.030;15.396;2023-05-08T03:04:40;97996.94;;;11.82;95.56
22580;BME280;11456;47.030;15.396;2023-05-08T03:06:46;98000.75;;;11.89;96.78
22580;BME280;11456;47.030;15.396;2023-05-08T03:09:23;98000.31;;;11.84;95.95
22580;BME280;11456;47.030;15.396;2023-05-08T03:11:54;98010.91;;;11.78;95.41
22580;BME280;11456;47.030;15.396;2023-05-08T03:14:23;98003.44;;;11.89;95.75
22580;BME280;11456;47.030;15.396;2023-05-08T03:16:53;98000.97;;;11.69;94.18
22580;BME280;11456;47.030;15.396;2023-05-08T03:19:23;97998.66;;;11.83;96.20
22580;BME280;11456;47.030;15.396;2023-05-08T03:21:52;98013.03;;;12.01;95.17
22580;BME280;11456;47.030;15.396;2023-05-08T03:24:20;98007.53;;;11.93;96.03
22580;BME280;11456;47.030;15.396;2023-05-08T03:26:48;98012.78;;;11.95;96.03
22580;BME280;11456;47.030;15.396;2023-05-08T03:29:14;98011.22;;;12.10;94.68
22580;BME280;11456;47.030;15.396;2023-05-08T03:31:42;98008.84;;;12.25;93.06
22580;BME280;11456;47.030;15.396;2023-05-08T03:34:11;98009.03;;;11.78;95.01
22580;BME280;11456;47.030;15.396;2023-05-08T03:36:37;98018.00;;;11.69;96.60
22580;BME280;11456;47.030;15.396;2023-05-08T03:39:04;98020.13;;;11.75;95.76
22580;BME280;11456;47.030;15.396;2023-05-08T03:41:31;98022.00;;;11.65;95.80
22580;BME280;11456;47.030;15.396;2023-05-08T03:43:57;98020.31;;;11.64;96.25
22580;BME280;11456;47.030;15.396;2023-05-08T03:46:24;98024.72;;;11.92;96.99
22580;BME280;11456;47.030;15.396;2023-05-08T03:48:51;98024.41;;;11.95;96.75
22580;BME280;11456;47.030;15.396;2023-05-08T03:51:18;98022.09;;;12.00;95.59
22580;BME280;11456;47.030;15.396;2023-05-08T03:53:48;98027.91;;;11.78;95.78
22580;BME280;11456;47.030;15.396;2023-05-08T03:56:14;98031.31;;;11.80;95.80
22580;BME280;11456;47.030;15.396;2023-05-08T04:01:12;98030.19;;;11.73;95.09
22580;BME280;11456;47.030;15.396;2023-05-08T04:06:24;98035.72;;;11.81;96.40
22580;BME280;11456;47.030;15.396;2023-05-08T04:11:29;98042.56;;;11.76;96.69
22580;BME280;11456;47.030;15.396;2023-05-08T04:13:59;98047.81;;;11.77;97.61
22580;BME280;11456;47.030;15.396;2023-05-08T04:16:27;98054.78;;;11.70;95.55
22580;BME280;11456;47.030;15.396;2023-05-08T04:19:00;98061.47;;;11.66;93.96
22580;BME280;11456;47.030;15.396;2023-05-08T04:21:28;98061.72;;;11.73;95.06
22580;BME280;11456;47.030;15.396;2023-05-08T04:23:57;98063.38;;;11.56;95.02
22580;BME280;11456;47.030;15.396;2023-05-08T04:26:26;98062.66;;;11.54;92.46
22580;BME280;11456;47.030;15.396;2023-05-08T04:28:55;98070.47;;;11.57;95.01
22580;BME280;11456;47.030;15.396;2023-05-08T04:31:22;98072.56;;;11.63;91.24
22580;BME280;11456;47.030;15.396;2023-05-08T04:33:50;98069.47;;;11.58;89.86
22580;BME280;11456;47.030;15.396;2023-05-08T04:36:16;98080.59;;;11.82;91.30
22580;BME280;11456;47.030;15.396;2023-05-08T04:38:44;98085.66;;;11.58;90.18
22580;BME280;11456;47.030;15.396;2023-05-08T04:41:11;98088.75;;;11.63;91.83
22580;BME280;11456;47.030;15.396;2023-05-08T04:43:39;98086.19;;;11.61;92.31
22580;BME280;11456;47.030;15.396;2023-05-08T04:46:06;98089.03;;;11.60;90.94
22580;BME280;11456;47.030;15.396;2023-05-08T04:48:33;98090.03;;;11.59;91.28
22580;BME280;11456;47.030;15.396;2023-05-08T04:50:59;98084.13;;;11.46;90.76
22580;BME280;11456;47.030;15.396;2023-05-08T04:53:26;98091.16;;;11.76;88.68
22580;BME280;11456;47.030;15.396;2023-05-08T04:55:53;98100.41;;;11.54;89.10
22580;BME280;11456;47.030;15.396;2023-05-08T04:58:19;98096.13;;;11.61;89.64
22580;BME280;11456;47.030;15.396;2023-05-08T05:00:47;98105.66;;;11.09;89.87
22580;BME280;11456;47.030;15.396;2023-05-08T05:03:14;98097.44;;;10.91;91.63
22580;BME280;11456;47.030;15.396;2023-05-08T05:05:41;98100.88;;;10.93;90.91
22580;BME280;11456;47.030;15.396;2023-05-08T05:08:08;98106.94;;;11.05;90.78
22580;BME280;11456;47.030;15.396;2023-05-08T05:10:34;98097.16;;;11.13;91.69
22580;BME280;11456;47.030;15.396;2023-05-08T05:13:03;98096.25;;;11.22;91.26
22580;BME280;11456;47.030;15.396;2023-05-08T05:15:30;98108.19;;;11.66;91.25
22580;BME280;11456;47.030;15.396;2023-05-08T05:17:57;98104.63;;;11.66;92.24
22580;BME280;11456;47.030;15.396;2023-05-08T05:20:24;98107.75;;;11.71;91.81
22580;BME280;11456;47.030;15.396;2023-05-08T05:22:51;98108.19;;;11.76;91.52
22580;BME280;11456;47.030;15.396;2023-05-08T05:25:18;98113.09;;;11.90;91.10
22580;BME280;11456;47.030;15.396;2023-05-08T05:27:44;98111.94;;;11.93;90.31
22580;BME280;11456;47.030;15.396;2023-05-08T05:30:11;98122.94;;;11.72;90.66
22580;BME280;11456;47.030;15.396;2023-05-08T05:32:38;98120.38;;;11.80;90.15
22580;BME280;11456;47.030;15.396;2023-05-08T05:35:05;98116.59;;;11.63;90.22
22580;BME280;11456;47.030;15.396;2023-05-08T05:37:32;98115.75;;;11.63;91.54
22580;BME280;11456;47.030;15.396;2023-05-08T05:39:59;98116.16;;;11.78;91.04
22580;BME280;11456;47.030;15.396;2023-05-08T05:42:25;98117.13;;;11.77;89.92
22580;BME280;11456;47.030;15.396;2023-05-08T05:44:53;98119.22;;;11.73;90.24
22580;BME280;11456;47.030;15.396;2023-05-08T05:47:22;98113.63;;;11.57;90.13
22580;BME280;11456;47.030;15.396;2023-05-08T05:49:49;98124.94;;;11.70;90.60
22580;BME280;11456;47.030;15.396;2023-05-08T05:52:15;98125.63;;;11.72;90.31
22580;BME280;11456;47.030;15.396;2023-05-08T05:54:42;98121.81;;;11.65;91.24
22580;BME280;11456;47.030;15.396;2023-05-08T05:57:08;98124.50;;;11.65;88.25
22580;BME280;11456;47.030;15.396;2023-05-08T05:59:35;98124.22;;;11.68;91.02
22580;BME280;11456;47.030;15.396;2023-05-08T06:02:02;98129.78;;;11.76;89.61
22580;BME280;11456;47.030;15.396;2023-05-08T06:04:28;98127.28;;;11.92;88.92
22580;BME280;11456;47.030;15.396;2023-05-08T06:06:55;98125.34;;;11.65;87.66
22580;BME280;11456;47.030;15.396;2023-05-08T06:09:22;98122.91;;;11.45;88.45
22580;BME280;11456;47.030;15.396;2023-05-08T06:11:50;98127.75;;;11.32;90.04
22580;BME280;11456;47.030;15.396;2023-05-08T06:14:17;98131.41;;;11.50;91.26
22580;BME280;11456;47.030;15.396;2023-05-08T06:16:43;98124.81;;;11.62;90.87
22580;BME280;11456;47.030;15.396;2023-05-08T06:19:10;98124.28;;;11.58;93.77
22580;BME280;11456;47.030;15.396;2023-05-08T06:21:37;98129.97;;;11.46;92.57
22580;BME280;11456;47.030;15.396;2023-05-08T06:24:05;98132.91;;;11.62;90.24
22580;BME280;11456;47.030;15.396;2023-05-08T06:26:33;98131.66;;;11.47;88.45
22580;BME280;11456;47.030;15.396;2023-05-08T06:28:59;98136.16;;;11.75;88.82
22580;BME280;11456;47.030;15.396;2023-05-08T06:31:26;98129.09;;;11.55;88.82
22580;BME280;11456;47.030;15.396;2023-05-08T06:33:53;98135.22;;;11.57;89.63
22580;BME280;11456;47.030;15.396;2023-05-08T06:36:20;98135.34;;;11.55;87.62
22580;BME280;11456;47.030;15.396;2023-05-08T06:38:46;98136.72;;;11.69;88.07
22580;BME280;11456;47.030;15.396;2023-05-08T06:41:13;98136.41;;;11.72;88.28
22580;BME280;11456;47.030;15.396;2023-05-08T06:43:40;98130.34;;;11.70;87.08
22580;BME280;11456;47.030;15.396;2023-05-08T06:46:07;98135.84;;;11.78;86.58
22580;BME280;11456;47.030;15.396;2023-05-08T06:48:33;98143.00;;;11.60;86.74
22580;BME280;11456;47.030;15.396;2023-05-08T06:51:00;98139.31;;;11.61;88.06
22580;BME280;11456;47.030;15.396;2023-05-08T06:53:27;98149.38;;;12.05;86.74
22580;BME280;11456;47.030;15.396;2023-05-08T06:55:54;98143.22;;;11.86;86.15
22580;BME280;11456;47.030;15.396;2023-05-08T06:58:23;98147.56;;;11.50;86.21
22580;BME280;11456;47.030;15.396;2023-05-08T07:00:49;98153.59;;;11.24;89.20
22580;BME280;11456;47.030;15.396;2023-05-08T07:03:16;98155.78;;;11.58;88.43
22580;BME280;11456;47.030;15.396;2023-05-08T07:05:42;98157.09;;;12.00;89.43
22580;BME280;11456;47.030;15.396;2023-05-08T07:08:09;98156.47;;;11.60;87.69
22580;BME280;11456;47.030;15.396;2023-05-08T07:10:35;98160.06;;;11.41;87.59
22580;BME280;11456;47.030;15.396;2023-05-08T07:13:02;98159.22;;;11.41;88.68
22580;BME280;11456;47.030;15.396;2023-05-08T07:15:30;98152.59;;;11.72;87.69
22580;BME280;11456;47.030;15.396;2023-05-08T07:17:57;98153.63;;;12.08;87.35
22580;BME280;11456;47.030;15.396;2023-05-08T07:20:23;98165.72;;;12.31;86.22
22580;BME280;11456;47.030;15.396;2023-05-08T07:22:50;98159.13;;;12.16;87.33
22580;BME280;11456;47.030;15.396;2023-05-08T07:25:17;98161.59;;;12.10;86.26
22580;BME280;11456;47.030;15.396;2023-05-08T07:27:43;98164.53;;;11.79;86.15
22580;BME280;11456;47.030;15.396;2023-05-08T07:30:10;98164.78;;;12.23;87.95
22580;BME280;11456;47.030;15.396;2023-05-08T07:32:36;98162.19;;;12.31;86.82
22580;BME280;11456;47.030;15.396;2023-05-08T07:35:05;98162.16;;;12.58;86.42
22580;BME280;11456;47.030;15.396;2023-05-08T07:37:36;98159.00;;;12.63;82.67
22580;BME280;11456;47.030;15.396;2023-05-08T07:40:02;98169.16;;;12.51;83.69
22580;BME280;11456;47.030;15.396;2023-05-08T07:42:29;98175.28;;;12.26;83.01
22580;BME280;11456;47.030;15.396;2023-05-08T07:44:55;98166.53;;;11.68;86.56
22580;BME280;11456;47.030;15.396;2023-05-08T07:47:22;98169.94;;;11.89;84.48
22580;BME280;11456;47.030;15.396;2023-05-08T07:49:49;98175.94;;;11.54;86.22
22580;BME280;11456;47.030;15.396;2023-05-08T07:52:15;98167.28;;;11.60;89.13
22580;BME280;11456;47.030;15.396;2023-05-08T07:54:42;98176.59;;;12.22;86.44
22580;BME280;11456;47.030;15.396;2023-05-08T07:57:09;98178.09;;;12.07;85.14
22580;BME280;11456;47.030;15.396;2023-05-08T07:59:36;98173.56;;;11.97;85.04
22580;BME280;11456;47.030;15.396;2023-05-08T08:02:03;98167.09;;;11.90;86.01
22580;BME280;11456;47.030;15.396;2023-05-08T08:04:29;98176.22;;;12.07;85.85
22580;BME280;11456;47.030;15.396;2023-05-08T08:06:58;98185.91;;;12.10;85.73
22580;BME280;11456;47.030;15.396;2023-05-08T08:09:24;98183.56;;;11.87;87.72
22580;BME280;11456;47.030;15.396;2023-05-08T08:11:51;98180.72;;;12.43;88.08
22580;BME280;11456;47.030;15.396;2023-05-08T08:14:17;98179.94;;;12.33;86.20
22580;BME280;11456;47.030;15.396;2023-05-08T08:16:44;98178.97;;;12.25;87.75
22580;BME280;11456;47.030;15.396;2023-05-08T08:19:10;98172.34;;;13.00;84.37
22580;BME280;11456;47.030;15.396;2023-05-08T08:21:41;98172.13;;;12.93;82.99
22580;BME280;11456;47.030;15.396;2023-05-08T08:24:07;98174.47;;;12.43;85.45
22580;BME280;11456;47.030;15.396;2023-05-08T08:26:34;98175.81;;;12.74;86.35
22580;BME280;11456;47.030;15.396;2023-05-08T08:29:00;98178.03;;;12.61;84.17
22580;BME280;11456;47.030;15.396;2023-05-08T08:31:27;98176.53;;;12.76;84.65
22580;BME280;11456;47.030;15.396;2023-05-08T08:33:53;98180.59;;;12.63;83.86
22580;BME280;11456;47.030;15.396;2023-05-08T08:36:20;98190.50;;;12.27;85.34
22580;BME280;11456;47.030;15.396;2023-05-08T08:38:46;98176.78;;;12.38;86.13
22580;BME280;11456;47.030;15.396;2023-05-08T08:41:13;98182.16;;;12.48;84.19
22580;BME280;11456;47.030;15.396;2023-05-08T08:43:40;98181.81;;;12.51;85.12
22580;BME280;11456;47.030;15.396;2023-05-08T08:46:11;98184.09;;;12.28;86.28
22580;BME280;11456;47.030;15.396;2023-05-08T08:48:43;98187.56;;;12.11;87.04
22580;BME280;11456;47.030;15.396;2023-05-08T08:51:16;98185.69;;;12.21;87.35
22580;BME280;11456;47.030;15.396;2023-05-08T08:53:45;98181.66;;;12.34;88.01
22580;BME280;11456;47.030;15.396;2023-05-08T08:56:14;98181.97;;;11.94;88.50
22580;BME280;11456;47.030;15.396;2023-05-08T08:58:46;98186.53;;;11.84;90.01
22580;BME280;11456;47.030;15.396;2023-05-08T09:01:16;98192.25;;;12.63;85.81
22580;BME280;11456;47.030;15.396;2023-05-08T09:03:43;98186.91;;;12.09;88.86
22580;BME280;11456;47.030;15.396;2023-05-08T09:06:13;98186.91;;;12.09;87.97
22580;BME280;11456;47.030;15.396;2023-05-08T09:08:40;98188.28;;;12.13;87.76
22580;BME280;11456;47.030;15.396;2023-05-08T09:11:07;98195.06;;;12.17;86.83
22580;BME280;11456;47.030;15.396;2023-05-08T09:13:33;98194.28;;;12.07;88.33
22580;BME280;11456;47.030;15.396;2023-05-08T09:16:00;98194.03;;;12.00;88.21
22580;BME280;11456;47.030;15.396;2023-05-08T09:18:27;98192.38;;;12.89;85.92
22580;BME280;11456;47.030;15.396;2023-05-08T09:20:53;98196.75;;;12.27;86.16
22580;BME280;11456;47.030;15.396;2023-05-08T09:23:20;98194.56;;;12.03;87.70
22580;BME280;11456;47.030;15.396;2023-05-08T09:25:47;98199.31;;;12.29;86.85
22580;BME280;11456;47.030;15.396;2023-05-08T09:30:56;98196.97;;;12.07;89.30
22580;BME280;11456;47.030;15.396;2023-05-08T09:33:24;98195.69;;;12.11;90.68
22580;BME280;11456;47.030;15.396;2023-05-08T09:35:50;98197.16;;;11.95;90.08
22580;BME280;11456;47.030;15.396;2023-05-08T09:41:12;98201.97;;;12.01;89.58
22580;BME280;11456;47.030;15.396;2023-05-08T09:43:44;98201.06;;;11.83;91.15
22580;BME280;11456;47.030;15.396;2023-05-08T09:46:20;98194.63;;;11.94;91.60
22580;BME280;11456;47.030;15.396;2023-05-08T09:48:48;98203.88;;;12.73;87.56
22580;BME280;11456;47.030;15.396;2023-05-08T09:51:14;98199.53;;;12.80;87.08
22580;BME280;11456;47.030;15.396;2023-05-08T09:53:41;98202.91;;;12.47;86.52
22580;BME280;11456;47.030;15.396;2023-05-08T09:56:07;98196.22;;;12.69;86.77
22580;BME280;11456;47.030;15.396;2023-05-08T09:58:38;98204.59;;;13.11;84.65
22580;BME280;11456;47.030;15.396;2023-05-08T10:01:28;98208.69;;;12.79;84.24
22580;BME280;11456;47.030;15.396;2023-05-08T10:03:52;98213.81;;;12.28;87.53
22580;BME280;11456;47.030;15.396;2023-05-08T10:06:19;98211.44;;;12.42;88.07
22580;BME280;11456;47.030;15.396;2023-05-08T10:08:45;98212.00;;;12.19;88.13
22580;BME280;11456;47.030;15.396;2023-05-08T10:11:16;98214.31;;;12.41;87.86
22580;BME280;11456;47.030;15.396;2023-05-08T10:13:43;98204.38;;;12.87;86.44
22580;BME280;11456;47.030;15.396;2023-05-08T10:16:12;98209.44;;;12.44;87.75
22580;BME280;11456;47.030;15.396;2023-05-08T10:18:39;98207.13;;;12.50;88.64
22580;BME280;11456;47.030;15.396;2023-05-08T10:21:07;98207.16;;;13.30;83.58
22580;BME280;11456;47.030;15.396;2023-05-08T10:23:34;98215.44;;;12.66;87.22
22580;BME280;11456;47.030;15.396;2023-05-08T10:26:06;98206.88;;;12.43;88.53
22580;BME280;11456;47.030;15.396;2023-05-08T10:28:45;98213.31;;;13.05;85.31
22580;BME280;11456;47.030;15.396;2023-05-08T10:31:16;98211.28;;;12.44;88.47
22580;BME280;11456;47.030;15.396;2023-05-08T10:33:43;98212.59;;;12.13;89.95
22580;BME280;11456;47.030;15.396;2023-05-08T10:36:10;98209.69;;;11.96;91.71
22580;BME280;11456;47.030;15.396;2023-05-08T10:38:38;98212.38;;;12.24;91.44
22580;BME280;11456;47.030;15.396;2023-05-08T10:41:06;98216.75;;;11.97;92.08
22580;BME280;11456;47.030;15.396;2023-05-08T10:43:33;98209.69;;;11.96;91.70
22580;BME280;11456;47.030;15.396;2023-05-08T10:46:03;98207.19;;;12.13;92.40
22580;BME280;11456;47.030;15.396;2023-05-08T10:48:35;98204.97;;;11.98;91.77
22580;BME280;11456;47.030;15.396;2023-05-08T10:51:05;98205.03;;;11.79;92.20
22580;BME280;11456;47.030;15.396;2023-05-08T10:53:43;98205.78;;;12.09;91.47
22580;BME280;11456;47.030;15.396;2023-05-08T10:56:11;98201.41;;;11.98;91.58
22580;BME280;11456;47.030;15.396;2023-05-08T10:58:38;98213.69;;;12.20;90.76
22580;BME280;11456;47.030;15.396;2023-05-08T11:03:39;98209.16;;;12.48;90.46
22580;BME280;11456;47.030;15.396;2023-05-08T11:06:06;98207.59;;;12.72;88.15
22580;BME280;11456;47.030;15.396;2023-05-08T11:08:37;98211.69;;;12.49;89.19
22580;BME280;11456;47.030;15.396;2023-05-08T11:11:27;98207.06;;;12.04;89.57
22580;BME280;11456;47.030;15.396;2023-05-08T11:13:57;98214.06;;;12.34;90.40
22580;BME280;11456;47.030;15.396;2023-05-08T11:19:20;98211.50;;;12.33;89.63
22580;BME280;11456;47.030;15.396;2023-05-08T11:24:36;98210.84;;;12.49;89.14
22580;BME280;11456;47.030;15.396;2023-05-08T11:27:03;98217.25;;;12.48;88.58
22580;BME280;11456;47.030;15.396;2023-05-08T11:29:29;98212.19;;;12.62;88.71
22580;BME280;11456;47.030;15.396;2023-05-08T11:31:56;98208.19;;;12.66;87.50
22580;BME280;11456;47.030;15.396;2023-05-08T11:35:06;98205.19;;;12.42;88.15
22580;BME280;11456;47.030;15.396;2023-05-08T11:37:21;98210.59;;;12.42;89.41
22580;BME280;11456;47.030;15.396;2023-05-08T11:39:49;98213.47;;;12.85;88.06
22580;BME280;11456;47.030;15.396;2023-05-08T11:47:30;98218.78;;;12.50;88.77
22580;BME280;11456;47.030;15.396;2023-05-08T11:49:58;98215.50;;;12.29;89.37
22580;BME280;11456;47.030;15.396;2023-05-08T11:52:24;98215.31;;;12.40;89.75
22580;BME280;11456;47.030;15.396;2023-05-08T11:54:51;98216.00;;;12.42;89.77
22580;BME280;11456;47.030;15.396;2023-05-08T11:57:18;98217.59;;;12.62;88.10
22580;BME280;11456;47.030;15.396;2023-05-08T11:59:48;98211.56;;;13.13;86.44
22580;BME280;11456;47.030;15.396;2023-05-08T12:02:14;98206.38;;;13.20;85.22
22580;BME280;11456;47.030;15.396;2023-05-08T12:04:44;98204.31;;;13.57;83.38
22580;BME280;11456;47.030;15.396;2023-05-08T12:07:12;98213.81;;;13.18;85.50
22580;BME280;11456;47.030;15.396;2023-05-08T12:09:38;98213.19;;;13.24;85.46
22580;BME280;11456;47.030;15.396;2023-05-08T12:12:05;98209.88;;;13.30;84.15
22580;BME280;11456;47.030;15.396;2023-05-08T12:14:33;98201.03;;;13.72;82.71
22580;BME280;11456;47.030;15.396;2023-05-08T12:17:00;98209.31;;;13.96;80.72
22580;BME280;11456;47.030;15.396;2023-05-08T12:19:27;98209.66;;;13.93;80.52
22580;BME280;11456;47.030;15.396;2023-05-08T12:21:55;98219.31;;;13.95;82.03
22580;BME280;11456;47.030;15.396;2023-05-08T12:24:22;98212.66;;;13.82;82.56
22580;BME280;11456;47.030;15.396;2023-05-08T12:26:54;98202.81;;;13.81;81.69
22580;BME280;11456;47.030;15.396;2023-05-08T12:29:23;98204.88;;;13.87;81.87
22580;BME280;11456;47.030;15.396;2023-05-08T12:31:52;98204.13;;;14.02;82.27
22580;BME280;11456;47.030;15.396;2023-05-08T12:34:19;98203.81;;;14.05;83.39
22580;BME280;11456;47.030;15.396;2023-05-08T12:36:46;98198.84;;;14.27;81.13
22580;BME280;11456;47.030;15.396;2023-05-08T12:39:16;98201.91;;;14.74;79.21
22580;BME280;11456;47.030;15.396;2023-05-08T12:41:50;98200.97;;;14.91;79.29
22580;BME280;11456;47.030;15.396;2023-05-08T12:44:17;98197.09;;;15.50;75.16
22580;BME280;11456;47.030;15.396;2023-05-08T12:46:54;98186.78;;;15.70;73.59
22580;BME280;11456;47.030;15.396;2023-05-08T12:49:25;98193.03;;;15.87;74.08
22580;BME280;11456;47.030;15.396;2023-05-08T12:51:58;98178.78;;;15.77;74.70
22580;BME280;11456;47.030;15.396;2023-05-08T12:54:32;98177.38;;;15.97;73.96
22580;BME280;11456;47.030;15.396;2023-05-08T12:56:59;98182.88;;;17.06;66.85
22580;BME280;11456;47.030;15.396;2023-05-08T12:59:32;98172.06;;;17.20;67.27
22580;BME280;11456;47.030;15.396;2023-05-08T13:01:58;98172.91;;;17.67;63.60
22580;BME280;11456;47.030;15.396;2023-05-08T13:04:25;98169.56;;;17.11;66.29
22580;BME280;11456;47.030;15.396;2023-05-08T13:06:53;98166.06;;;17.25;65.93
22580;BME280;11456;47.030;15.396;2023-05-08T13:09:19;98168.78;;;17.25;65.65
22580;BME280;11456;47.030;15.396;2023-05-08T13:11:47;98173.59;;;16.69;67.83
22580;BME280;11456;47.030;15.396;2023-05-08T13:14:13;98169.97;;;16.38;69.29
22580;BME280;11456;47.030;15.396;2023-05-08T13:16:40;98172.78;;;16.83;67.58
22580;BME280;11456;47.030;15.396;2023-05-08T13:19:07;98169.16;;;16.68;64.97
22580;BME280;11456;47.030;15.396;2023-05-08T13:21:33;98170.09;;;16.44;67.53
22580;BME280;11456;47.030;15.396;2023-05-08T13:24:00;98173.72;;;16.76;65.04
22580;BME280;11456;47.030;15.396;2023-05-08T13:26:26;98161.47;;;16.72;65.72
22580;BME280;11456;47.030;15.396;2023-05-08T13:28:53;98158.25;;;16.99;64.71
22580;BME280;11456;47.030;15.396;2023-05-08T13:31:22;98154.72;;;17.36;62.66
22580;BME280;11456;47.030;15.396;2023-05-08T13:33:48;98153.44;;;17.70;62.71
22580;BME280;11456;47.030;15.396;2023-05-08T13:36:15;98146.16;;;17.47;64.33
22580;BME280;11456;47.030;15.396;2023-05-08T13:38:41;98162.81;;;16.37;67.84
22580;BME280;11456;47.030;15.396;2023-05-08T13:41:08;98156.41;;;16.30;68.76
22580;BME280;11456;47.030;15.396;2023-05-08T13:43:34;98153.06;;;16.12;68.57